Dawson, North Dakota
Current Conditions -  °F | °C
As of 8:52 PM on Saturday 22 Nov 2014 (Local Time) from KBIS Reporting Station
Clear Clear  
Wind Chill: 33°   Ceiling: Unl
Heat Index: 33°   Visibility: 10mi
Dew Point: 31°   Wind: 0mph
Humidity: 92%   Direction: NA
Pressure: 29.34"   Gusts: NA
Location:  46.87°N, 99.75°W
Report Text: KBIS 230252Z 00000KT 10SM CLR 01/M01 A2934 RMK AO2 SLP953 60000 T00061006 56004
Loading
Personal Weather Stations






























Interactive Weather Map New forecast layout! Learn more

10-Day Weather Forecast

Advertisements
Track Severe Weather on mobile